Time;durP1;ratioP1;P1;durP2;ratioP2;P2;SDS_P1;SDS_P2;PMS_P1;PMS_P2;Temp;Humidity;BMP_temperature;BMP_pressure;BME280_temperature;BME280_humidity;BME280_pressure;Samples;Min_cycle;Max_cycle;Signal;HPM_P1;HPM_P2
2022/06/10 00:01:06;;;;;;;1.00;1.00;;;18.40;96.90;;;;;;5001176;28;20182;-89
2022/06/10 00:03:35;;;;;;;1.60;1.20;;;18.30;96.90;;;;;;5012423;28;20233;-90
2022/06/10 00:06:05;;;;;;;1.17;1.13;;;18.20;96.70;;;;;;5016973;28;20241;-86
2022/06/10 00:08:36;;;;;;;1.30;1.30;;;18.30;96.60;;;;;;5002321;28;20182;-83
2022/06/10 00:11:02;;;;;;;1.40;1.00;;;18.20;96.40;;;;;;5005860;28;20162;-93
2022/06/10 00:13:31;;;;;;;1.10;1.10;;;18.30;96.10;;;;;;4981674;28;20543;-87
2022/06/10 00:15:58;;;;;;;1.53;1.43;;;18.30;96.00;;;;;;4979552;28;20642;-83
2022/06/10 00:18:26;;;;;;;1.23;1.23;;;18.30;95.80;;;;;;4997426;28;20265;-88
2022/06/10 00:20:52;;;;;;;1.00;1.00;;;18.30;96.20;;;;;;5001228;28;20257;-88
2022/06/10 00:23:17;;;;;;;1.40;1.40;;;18.30;96.00;;;;;;4997184;28;20169;-87
2022/06/10 00:25:45;;;;;;;3.87;1.20;;;18.40;96.40;;;;;;5019080;28;20173;-87
2022/06/10 00:28:15;;;;;;;1.10;1.10;;;18.30;96.10;;;;;;5005019;28;20590;-91
2022/06/10 00:30:41;;;;;;;1.43;1.30;;;18.30;96.20;;;;;;5002675;28;20177;-84
2022/06/10 00:33:07;;;;;;;1.30;1.30;;;18.40;95.80;;;;;;4988890;28;20299;-85
2022/06/10 00:35:34;;;;;;;1.30;1.20;;;18.40;95.60;;;;;;4998984;28;20206;-86
2022/06/10 00:37:59;;;;;;;1.47;1.43;;;18.40;96.00;;;;;;4978602;28;20185;-85
2022/06/10 00:40:29;;;;;;;1.30;1.30;;;18.40;96.10;;;;;;4995615;28;20215;-83
2022/06/10 00:42:56;;;;;;;1.50;1.40;;;18.40;96.20;;;;;;4996215;28;20256;-86
2022/06/10 00:45:56;;;;;;;1.20;1.20;;;18.40;96.10;;;;;;4978013;28;20173;-84
2022/06/10 00:48:52;;;;;;;1.30;1.30;;;18.40;95.90;;;;;;4994262;28;20174;-86
2022/06/10 00:51:37;;;;;;;1.40;1.40;;;18.40;96.00;;;;;;4996465;28;20212;-87
2022/06/10 00:54:29;;;;;;;1.20;1.20;;;18.40;95.70;;;;;;4996541;28;20277;-90
2022/06/10 00:57:03;;;;;;;1.30;1.20;;;18.40;95.80;;;;;;4978085;28;20185;-86
2022/06/10 00:59:36;;;;;;;1.53;1.53;;;18.40;95.60;;;;;;4995297;28;20170;-85
2022/06/10 01:02:14;;;;;;;1.73;1.40;;;18.40;95.80;;;;;;4977303;28;20642;-86
2022/06/10 01:04:42;;;;;;;1.63;1.40;;;18.40;95.50;;;;;;4995521;28;20169;-84
2022/06/10 01:07:11;;;;;;;1.40;1.40;;;18.50;95.60;;;;;;4978171;28;20748;-85
2022/06/10 01:09:38;;;;;;;2.23;1.60;;;18.50;95.50;;;;;;4994886;28;20186;-90
2022/06/10 01:12:13;;;;;;;1.60;1.50;;;18.50;95.60;;;;;;4978094;28;20181;-93
2022/06/10 01:15:12;;;;;;;1.50;1.40;;;18.50;95.60;;;;;;4995621;28;20275;-91
2022/06/10 01:17:43;;;;;;;1.60;1.50;;;18.50;95.70;;;;;;4994235;28;20201;-91
2022/06/10 01:20:31;;;;;;;2.27;1.57;;;18.40;95.60;;;;;;4978490;28;20260;-93
2022/06/10 01:23:15;;;;;;;1.37;1.37;;;18.50;95.70;;;;;;4996050;28;20213;-91
2022/06/10 01:25:55;;;;;;;3.63;2.27;;;18.40;95.60;;;;;;5002109;28;20649;-91
2022/06/10 01:28:58;;;;;;;1.47;1.47;;;18.50;95.90;;;;;;4987605;28;20176;-89
2022/06/10 01:31:47;;;;;;;1.20;1.20;;;18.50;95.60;;;;;;4978132;28;20212;-90
2022/06/10 01:34:28;;;;;;;1.40;1.40;;;18.50;95.70;;;;;;4978743;28;20223;-91
2022/06/10 01:37:00;;;;;;;1.40;1.30;;;18.50;95.50;;;;;;4996943;28;20619;-92
2022/06/10 01:39:55;;;;;;;1.67;1.37;;;18.50;95.80;;;;;;4997119;28;20180;-92
2022/06/10 01:42:24;;;;;;;1.20;1.20;;;18.50;95.60;;;;;;4996601;28;20175;-88
2022/06/10 01:45:01;;;;;;;1.10;1.10;;;18.50;95.50;;;;;;4999489;28;20229;-89
2022/06/10 01:48:01;;;;;;;1.20;1.20;;;18.50;95.30;;;;;;5004248;28;20174;-89
2022/06/10 01:50:26;;;;;;;1.07;1.07;;;18.60;95.10;;;;;;5018620;28;20185;-87
2022/06/10 01:53:11;;;;;;;0.97;0.97;;;18.60;95.10;;;;;;5011345;28;20197;-87
2022/06/10 01:55:45;;;;;;;1.23;1.23;;;18.60;95.10;;;;;;5010808;28;20216;-84
2022/06/10 01:58:19;;;;;;;1.10;1.10;;;18.60;95.40;;;;;;5013861;28;20161;-84
2022/06/10 02:00:48;;;;;;;1.17;1.07;;;18.60;95.20;;;;;;5015461;28;20162;-84
2022/06/10 02:03:31;;;;;;;1.77;0.93;;;18.60;95.30;;;;;;5012147;28;20170;-86
2022/06/10 02:06:02;;;;;;;1.03;1.03;;;18.60;95.20;;;;;;5011929;28;20169;-91
2022/06/10 02:08:33;;;;;;;0.73;0.73;;;18.60;95.20;;;;;;5005383;28;20229;-90
2022/06/10 02:11:07;;;;;;;0.93;0.93;;;18.60;95.20;;;;;;4997541;28;20174;-92
2022/06/10 02:13:42;;;;;;;0.90;0.90;;;18.60;95.40;;;;;;5004220;28;20157;-91
2022/06/10 02:16:13;;;;;;;0.80;0.80;;;18.60;95.40;;;;;;5000318;28;20165;-94
2022/06/10 02:18:44;;;;;;;0.80;0.80;;;18.60;95.20;;;;;;5017073;28;20170;-91
2022/06/10 02:21:22;;;;;;;0.80;0.80;;;18.60;95.30;;;;;;5007434;28;20174;-90
2022/06/10 02:23:56;;;;;;;0.77;0.77;;;18.60;95.20;;;;;;4981157;28;20184;-88
2022/06/10 02:26:24;;;;;;;0.80;0.80;;;18.60;95.30;;;;;;4994877;28;20194;-84
2022/06/10 02:28:53;;;;;;;0.80;0.80;;;18.60;95.10;;;;;;4993647;28;20166;-87
2022/06/10 02:31:36;;;;;;;0.80;0.80;;;18.60;95.10;;;;;;4995064;28;20188;-91
2022/06/10 02:34:03;;;;;;;0.57;0.57;;;18.70;95.10;;;;;;5005547;28;20193;-86
2022/06/10 02:36:47;;;;;;;1.70;0.93;;;18.70;95.20;;;;;;5009918;28;20427;-90
2022/06/10 02:39:54;;;;;;;0.83;0.83;;;18.70;95.10;;;;;;4994773;28;20181;-89
2022/06/10 02:42:35;;;;;;;0.80;0.80;;;18.70;94.90;;;;;;4994256;28;20165;-87
2022/06/10 02:45:27;;;;;;;0.83;0.83;;;18.70;94.90;;;;;;4993995;28;20177;-88
2022/06/10 02:48:00;;;;;;;0.90;0.90;;;18.70;95.00;;;;;;4976641;28;20177;-88
2022/06/10 02:50:26;;;;;;;1.00;0.80;;;18.70;94.90;;;;;;4976376;28;20185;-83
2022/06/10 02:52:52;;;;;;;0.50;0.50;;;18.70;94.90;;;;;;4976005;28;20209;-85
2022/06/10 02:55:24;;;;;;;0.77;0.70;;;18.70;94.90;;;;;;4995486;28;20209;-86
2022/06/10 03:01:13;;;;;;;0.77;0.77;;;18.80;95.00;;;;;;4993315;28;20173;-85
2022/06/10 03:03:56;;;;;;;0.80;0.80;;;18.70;94.90;;;;;;4993788;28;20222;-92
2022/06/10 03:06:43;;;;;;;1.77;0.83;;;18.70;94.90;;;;;;4994065;28;20217;-88
2022/06/10 03:09:20;;;;;;;0.87;0.87;;;18.70;94.90;;;;;;4976069;28;20201;-87
2022/06/10 03:12:15;;;;;;;0.80;0.80;;;18.80;94.80;;;;;;4979901;28;20165;-91
2022/06/10 03:15:02;;;;;;;0.63;0.63;;;18.70;94.80;;;;;;4997543;28;20601;-90
2022/06/10 03:17:40;;;;;;;0.93;0.93;;;18.80;94.80;;;;;;5003642;28;20272;-91
2022/06/10 03:20:36;;;;;;;0.80;0.80;;;18.80;94.80;;;;;;4999231;28;20166;-91
2022/06/10 03:23:02;;;;;;;3.17;0.90;;;18.70;95.00;;;;;;4998790;28;20228;-94
2022/06/10 03:25:42;;;;;;;0.87;0.87;;;18.70;94.90;;;;;;4998612;28;20181;-92
2022/06/10 03:28:23;;;;;;;0.93;0.93;;;18.80;94.90;;;;;;4999341;28;20168;-90
2022/06/10 03:31:06;;;;;;;1.53;0.90;;;18.80;94.70;;;;;;5004855;28;20204;-87
2022/06/10 03:33:43;;;;;;;0.80;0.80;;;18.80;94.90;;;;;;5041113;28;20181;-90
2022/06/10 03:36:15;;;;;;;1.17;0.87;;;18.80;95.10;;;;;;5018904;28;20633;-89
2022/06/10 03:38:48;;;;;;;2.50;1.00;;;18.80;95.00;;;;;;5017513;28;20169;-89
2022/06/10 03:41:25;;;;;;;0.83;0.80;;;18.80;94.90;;;;;;5010466;28;20512;-90
2022/06/10 03:43:54;;;;;;;1.47;0.90;;;18.80;95.00;;;;;;5025888;28;20586;-92
2022/06/10 03:46:22;;;;;;;0.70;0.70;;;18.70;95.00;;;;;;5018617;28;20247;-91
2022/06/10 03:48:50;;;;;;;0.80;0.80;;;18.70;95.00;;;;;;5033450;28;20181;-89
2022/06/10 03:51:17;;;;;;;1.00;1.00;;;18.80;95.10;;;;;;5001172;28;20178;-92
2022/06/10 03:53:44;;;;;;;1.37;1.10;;;18.80;95.00;;;;;;5000249;28;20183;-91
2022/06/10 03:56:11;;;;;;;1.50;0.80;;;18.80;95.00;;;;;;5017769;28;20180;-87
2022/06/10 03:58:38;;;;;;;0.90;0.90;;;18.70;95.00;;;;;;4999410;28;20212;-88
2022/06/10 04:01:04;;;;;;;1.10;0.80;;;18.70;95.20;;;;;;4999646;28;20192;-90
2022/06/10 04:03:30;;;;;;;1.13;0.90;;;18.70;95.40;;;;;;5021737;28;20212;-88
2022/06/10 04:05:56;;;;;;;1.23;1.10;;;18.60;95.30;;;;;;5039165;28;20169;-83
2022/06/10 04:08:21;;;;;;;0.80;0.80;;;18.60;95.40;;;;;;5021260;28;20242;-86
2022/06/10 04:10:47;;;;;;;1.43;0.90;;;18.60;95.40;;;;;;5019112;28;20580;-84
2022/06/10 04:13:17;;;;;;;1.20;0.87;;;18.60;95.50;;;;;;5017833;28;20688;-84
2022/06/10 04:15:44;;;;;;;0.80;0.80;;;18.60;95.40;;;;;;5017667;28;20204;-89
2022/06/10 04:18:10;;;;;;;1.27;0.80;;;18.60;95.20;;;;;;5017832;28;20181;-94
2022/06/10 04:20:38;;;;;;;0.97;0.80;;;18.60;95.30;;;;;;4999167;28;20185;-83
2022/06/10 04:23:05;;;;;;;0.80;0.80;;;18.60;95.30;;;;;;4998808;28;20189;-86
2022/06/10 04:25:33;;;;;;;2.00;0.80;;;18.60;95.10;;;;;;5016777;28;20193;-88
2022/06/10 04:27:58;;;;;;;0.80;0.80;;;18.60;95.30;;;;;;5000514;28;20185;-87
2022/06/10 04:30:34;;;;;;;0.90;0.90;;;18.60;95.40;;;;;;5016465;28;20173;-82
2022/06/10 04:33:00;;;;;;;0.90;0.90;;;18.60;95.40;;;;;;5017639;28;20292;-84
2022/06/10 04:35:27;;;;;;;0.73;0.73;;;18.60;95.60;;;;;;5033558;28;20209;-83
2022/06/10 04:37:56;;;;;;;0.93;0.93;;;18.60;95.50;;;;;;5029000;28;20169;-83
2022/06/10 04:40:25;;;;;;;0.93;0.93;;;18.60;95.60;;;;;;5018390;28;20224;-84
2022/06/10 04:42:51;;;;;;;0.70;0.70;;;18.60;95.70;;;;;;4998404;28;20181;-84
2022/06/10 04:45:21;;;;;;;1.03;1.03;;;18.60;95.80;;;;;;5016153;28;20185;-89
2022/06/10 04:47:47;;;;;;;1.00;1.00;;;18.60;95.80;;;;;;5018220;28;20199;-86
2022/06/10 04:50:16;;;;;;;0.90;0.90;;;18.70;95.80;;;;;;5026239;28;20188;-89
2022/06/10 04:52:41;;;;;;;1.13;0.80;;;18.60;95.70;;;;;;5017223;28;20633;-85
2022/06/10 04:55:08;;;;;;;0.83;0.83;;;18.60;95.80;;;;;;5018137;28;20204;-90
2022/06/10 04:57:35;;;;;;;0.80;0.80;;;18.60;96.00;;;;;;5015845;28;20228;-90
2022/06/10 05:00:01;;;;;;;1.10;1.00;;;18.60;95.90;;;;;;4999122;28;20188;-89
2022/06/10 05:02:27;;;;;;;1.60;0.97;;;18.60;95.90;;;;;;5000949;28;20173;-90
2022/06/10 05:04:52;;;;;;;1.67;0.70;;;18.60;95.80;;;;;;5001779;28;20177;-94
2022/06/10 05:07:18;;;;;;;0.83;0.83;;;18.70;95.80;;;;;;5018729;28;20260;-93
2022/06/10 05:09:44;;;;;;;0.90;0.90;;;18.60;95.70;;;;;;5019572;28;20225;-92
2022/06/10 05:12:10;;;;;;;0.90;0.90;;;18.60;96.00;;;;;;5010304;28;20208;-93
2022/06/10 05:14:36;;;;;;;0.90;0.90;;;18.60;95.90;;;;;;5037405;28;20208;-84
2022/06/10 05:17:03;;;;;;;1.70;1.00;;;18.60;95.90;;;;;;5030508;28;20244;-89
2022/06/10 05:19:30;;;;;;;1.70;0.83;;;18.70;96.00;;;;;;5021519;28;20730;-89
2022/06/10 05:21:56;;;;;;;1.53;0.87;;;18.70;95.80;;;;;;5018426;28;20181;-92
2022/06/10 05:24:22;;;;;;;1.57;1.00;;;18.70;95.70;;;;;;5015943;28;20671;-88
2022/06/10 05:26:48;;;;;;;1.00;1.00;;;18.70;95.50;;;;;;5019472;28;20170;-90
2022/06/10 05:29:13;;;;;;;0.67;0.67;;;18.70;95.60;;;;;;5024542;28;20267;-83
2022/06/10 05:31:39;;;;;;;1.53;0.80;;;18.70;95.60;;;;;;5030143;28;20173;-87
2022/06/10 05:36:49;;;;;;;0.90;0.90;;;18.60;95.80;;;;;;5019049;28;20184;-90
2022/06/10 05:39:15;;;;;;;1.43;1.03;;;18.60;95.80;;;;;;4999378;28;20177;-90
2022/06/10 05:44:26;;;;;;;2.57;1.50;;;18.60;95.90;;;;;;5015322;28;20184;-88
2022/06/10 05:46:55;;;;;;;1.27;1.10;;;18.70;95.80;;;;;;5015567;28;20165;-89
2022/06/10 05:49:21;;;;;;;3.17;1.23;;;18.70;95.90;;;;;;5015202;28;20173;-90
2022/06/10 05:51:47;;;;;;;1.67;1.13;;;18.70;95.90;;;;;;5014704;28;20545;-91
2022/06/10 05:54:13;;;;;;;1.23;1.23;;;18.70;96.00;;;;;;5015718;28;20205;-92
2022/06/10 05:56:43;;;;;;;0.60;0.60;;;18.70;95.90;;;;;;5025479;28;20189;-91
2022/06/10 05:59:10;;;;;;;1.27;1.20;;;18.60;95.90;;;;;;5012858;28;20180;-92
2022/06/10 06:01:36;;;;;;;1.07;1.07;;;18.60;96.00;;;;;;5016770;28;20186;-91
2022/06/10 06:04:02;;;;;;;1.37;1.10;;;18.70;95.80;;;;;;5016494;28;20200;-92
2022/06/10 06:06:29;;;;;;;1.00;1.00;;;18.80;95.90;;;;;;5015126;28;20213;-90
2022/06/10 06:08:56;;;;;;;2.30;2.20;;;18.80;95.80;;;;;;5015833;28;20180;-91
2022/06/10 06:11:24;;;;;;;1.80;1.17;;;18.90;95.90;;;;;;5016432;28;20273;-91
2022/06/10 06:13:50;;;;;;;4.50;2.50;;;18.90;95.80;;;;;;5014933;28;20184;-93
2022/06/10 06:16:18;;;;;;;1.80;1.23;;;18.90;95.90;;;;;;5015436;28;20181;-90
2022/06/10 06:18:44;;;;;;;1.20;1.20;;;18.90;95.70;;;;;;5015032;28;20196;-93
2022/06/10 06:21:10;;;;;;;1.13;1.10;;;18.90;95.60;;;;;;5018155;28;20243;-92
2022/06/10 06:23:37;;;;;;;1.83;1.73;;;18.90;95.70;;;;;;5018582;28;20643;-88
2022/06/10 06:26:04;;;;;;;1.10;1.10;;;18.90;95.60;;;;;;5017614;28;20217;-91
2022/06/10 06:28:30;;;;;;;4.97;1.27;;;19.00;95.70;;;;;;4976239;28;20646;-89
2022/06/10 06:30:56;;;;;;;0.93;0.93;;;19.00;95.60;;;;;;5014565;28;20177;-89
2022/06/10 06:33:22;;;;;;;1.60;1.03;;;19.00;95.50;;;;;;4997379;28;20204;-90
2022/06/10 06:35:54;;;;;;;1.53;1.40;;;19.10;95.70;;;;;;4998866;28;20240;-87
2022/06/10 06:38:21;;;;;;;1.20;1.20;;;19.10;95.50;;;;;;5012211;28;20184;-90
2022/06/10 06:40:47;;;;;;;1.20;1.20;;;19.10;95.60;;;;;;5020501;28;20184;-90
2022/06/10 06:43:13;;;;;;;1.10;1.10;;;19.10;95.40;;;;;;5015949;28;20177;-89
2022/06/10 06:45:40;;;;;;;0.97;0.97;;;19.20;95.50;;;;;;5014186;28;20170;-85
2022/06/10 06:48:09;;;;;;;1.00;1.00;;;19.20;95.40;;;;;;4995729;28;20176;-84
2022/06/10 06:50:39;;;;;;;2.00;1.30;;;19.20;95.40;;;;;;5020513;28;20177;-91
2022/06/10 06:53:05;;;;;;;2.30;1.20;;;19.20;95.50;;;;;;5026836;28;20208;-87
2022/06/10 06:55:31;;;;;;;0.80;0.80;;;19.30;95.40;;;;;;5016711;28;20201;-85
2022/06/10 06:57:57;;;;;;;1.00;1.00;;;19.40;95.00;;;;;;4990922;28;20212;-92
2022/06/10 07:00:23;;;;;;;1.70;1.00;;;19.40;95.20;;;;;;4978796;28;20208;-88
2022/06/10 07:02:50;;;;;;;1.13;1.00;;;19.40;95.30;;;;;;4999047;28;20178;-88
2022/06/10 07:05:15;;;;;;;1.30;1.30;;;19.30;95.10;;;;;;5014924;28;20644;-94
2022/06/10 07:07:42;;;;;;;1.93;1.10;;;19.40;95.40;;;;;;5014641;28;20223;-90
2022/06/10 07:10:10;;;;;;;0.97;0.97;;;19.40;95.20;;;;;;5014371;28;20181;-87
2022/06/10 07:12:36;;;;;;;1.30;1.30;;;19.40;95.30;;;;;;5020398;28;20185;-89
2022/06/10 07:15:04;;;;;;;1.27;1.27;;;19.40;95.40;;;;;;5026805;28;20327;-88
2022/06/10 07:17:30;;;;;;;1.30;1.20;;;19.50;95.40;;;;;;5003021;28;20579;-85
2022/06/10 07:19:58;;;;;;;1.30;1.20;;;19.60;95.10;;;;;;5025651;28;20174;-92
2022/06/10 07:22:24;;;;;;;0.97;0.97;;;19.70;95.00;;;;;;4996981;28;20272;-89
2022/06/10 07:24:50;;;;;;;1.10;1.10;;;19.70;95.00;;;;;;5013696;28;20248;-87
2022/06/10 07:27:16;;;;;;;0.80;0.80;;;19.70;95.00;;;;;;5013625;28;20717;-89
2022/06/10 07:29:41;;;;;;;1.20;1.20;;;19.80;95.00;;;;;;5013765;28;20173;-85
2022/06/10 07:32:08;;;;;;;1.43;0.97;;;19.70;95.00;;;;;;5014134;28;20176;-85
2022/06/10 07:34:33;;;;;;;0.90;0.90;;;19.70;95.30;;;;;;4995062;28;20291;-86
2022/06/10 07:37:00;;;;;;;1.03;1.03;;;19.80;95.10;;;;;;5012989;28;20267;-83
2022/06/10 07:39:26;;;;;;;1.40;1.30;;;19.80;94.90;;;;;;5013248;28;20536;-83
2022/06/10 07:41:58;;;;;;;1.90;1.17;;;19.70;95.10;;;;;;5013369;28;20169;-90
2022/06/10 07:44:32;;;;;;;1.27;1.20;;;19.70;95.20;;;;;;4998169;28;20181;-92
2022/06/10 07:47:07;;;;;;;5.73;1.27;;;19.60;95.10;;;;;;5036114;28;20156;-89
2022/06/10 07:49:33;;;;;;;2.30;1.00;;;19.70;95.10;;;;;;5033033;28;20736;-94
2022/06/10 07:51:59;;;;;;;0.93;0.93;;;19.80;95.00;;;;;;5020985;28;20196;-87
2022/06/10 07:54:24;;;;;;;1.17;1.17;;;19.80;95.00;;;;;;5022799;28;20193;-92
2022/06/10 07:56:51;;;;;;;0.80;0.80;;;19.80;95.00;;;;;;5016292;28;20174;-91
2022/06/10 07:59:17;;;;;;;0.90;0.90;;;19.80;94.70;;;;;;5017574;28;20162;-83
2022/06/10 08:01:43;;;;;;;1.13;1.13;;;19.80;94.80;;;;;;4999821;28;20184;-89
2022/06/10 08:04:09;;;;;;;1.43;1.20;;;19.80;94.70;;;;;;5001922;28;20181;-91
2022/06/10 08:06:40;;;;;;;1.20;1.20;;;19.80;94.80;;;;;;5017483;28;20259;-91
2022/06/10 08:09:06;;;;;;;1.17;1.17;;;19.90;94.80;;;;;;5000356;28;20315;-93
2022/06/10 08:11:32;;;;;;;1.43;0.93;;;19.80;94.90;;;;;;5018037;28;20173;-89
2022/06/10 08:13:58;;;;;;;3.23;1.50;;;19.80;94.60;;;;;;5017832;28;20177;-94
2022/06/10 08:16:25;;;;;;;2.40;1.70;;;19.90;94.90;;;;;;5018352;28;20193;-93
2022/06/10 08:18:52;;;;;;;1.00;1.00;;;20.00;94.80;;;;;;5018692;28;20192;-90
2022/06/10 08:24:03;;;;;;;1.53;1.10;;;19.90;94.90;;;;;;5020059;28;20651;-91
2022/06/10 08:26:28;;;;;;;1.00;1.00;;;20.00;94.60;;;;;;5020516;28;20174;-95
2022/06/10 08:28:54;;;;;;;1.00;1.00;;;19.90;94.80;;;;;;5021602;28;20207;-95
2022/06/10 08:31:21;;;;;;;0.90;0.90;;;19.90;94.60;;;;;;5020690;28;20223;-91
2022/06/10 08:33:47;;;;;;;1.40;1.30;;;19.90;94.50;;;;;;5023476;28;20173;-93
2022/06/10 08:36:13;;;;;;;1.30;1.10;;;20.00;94.90;;;;;;5029981;28;20180;-93
2022/06/10 08:38:43;;;;;;;1.17;1.07;;;20.10;94.80;;;;;;5037754;28;20189;-88
2022/06/10 08:41:19;;;;;;;1.10;1.10;;;20.20;94.50;;;;;;5037531;28;20191;-88
2022/06/10 08:44:08;;;;;;;1.37;1.20;;;20.30;94.60;;;;;;5028261;28;20165;-86
2022/06/10 08:46:56;;;;;;;0.90;0.90;;;20.30;94.40;;;;;;5018639;28;20593;-92
2022/06/10 08:49:40;;;;;;;0.80;0.80;;;20.30;94.60;;;;;;5016228;28;20165;-91
2022/06/10 08:52:24;;;;;;;1.57;1.10;;;20.40;94.60;;;;;;5016206;28;20170;-93
2022/06/10 08:54:56;;;;;;;1.40;1.30;;;20.40;94.70;;;;;;5015808;28;20211;-93
2022/06/10 08:57:35;;;;;;;2.60;1.50;;;20.50;94.60;;;;;;5017891;28;20228;-91
2022/06/10 09:00:05;;;;;;;1.50;1.40;;;20.60;94.70;;;;;;5021721;28;20517;-91
2022/06/10 09:02:37;;;;;;;1.20;1.10;;;20.80;94.40;;;;;;5018996;28;20367;-93
2022/06/10 09:05:25;;;;;;;1.20;1.10;;;20.80;94.10;;;;;;5015838;28;20165;-94
2022/06/10 09:08:02;;;;;;;1.00;1.00;;;20.80;94.00;;;;;;5033473;28;20224;-91
2022/06/10 09:10:38;;;;;;;1.20;1.10;;;20.90;93.90;;;;;;4998647;28;20250;-94
2022/06/10 09:13:29;;;;;;;1.10;1.10;;;21.00;94.10;;;;;;4996248;28;20170;-91
2022/06/10 09:16:05;;;;;;;1.47;1.10;;;21.30;93.50;;;;;;4996822;28;20205;-94
2022/06/10 09:18:37;;;;;;;1.70;1.10;;;21.50;93.80;;;;;;4996301;28;20165;-95
2022/06/10 09:21:14;;;;;;;1.37;1.27;;;21.60;93.80;;;;;;4996131;28;20170;-89
2022/06/10 09:23:45;;;;;;;1.47;1.10;;;21.60;93.50;;;;;;4995013;28;20630;-85
2022/06/10 09:26:30;;;;;;;1.90;1.07;;;21.70;93.50;;;;;;4977618;28;20178;-84
2022/06/10 09:28:56;;;;;;;1.50;1.20;;;21.90;93.30;;;;;;5000123;28;20253;-95
2022/06/10 09:31:37;;;;;;;1.20;1.20;;;22.00;93.30;;;;;;4998435;28;20204;-87
2022/06/10 09:34:19;;;;;;;1.70;1.40;;;22.00;93.20;;;;;;4995789;28;20194;-93
2022/06/10 09:36:50;;;;;;;1.20;1.20;;;22.00;93.60;;;;;;4978285;28;20181;-93
2022/06/10 09:42:35;;;;;;;1.10;1.00;;;21.80;93.10;;;;;;4995398;28;20170;-88
2022/06/10 09:45:28;;;;;;;1.07;1.07;;;21.50;93.00;;;;;;4964108;28;20174;-88
2022/06/10 09:48:43;;;;;;;1.73;1.07;;;21.40;94.00;;;;;;4995897;28;20162;-94
2022/06/10 09:51:37;;;;;;;1.67;1.17;;;21.50;93.30;;;;;;4894878;28;20193;-86
2022/06/10 09:54:15;;;;;;;1.80;1.07;;;21.40;93.40;;;;;;4978039;28;20178;-93
2022/06/10 09:57:05;;;;;;;1.00;1.00;;;21.50;93.40;;;;;;4995838;28;20173;-92
2022/06/10 09:59:42;;;;;;;1.40;1.17;;;21.70;93.40;;;;;;4978276;28;20170;-93
2022/06/10 10:02:26;;;;;;;1.23;1.00;;;21.70;93.40;;;;;;4995010;28;20196;-85
2022/06/10 10:05:01;;;;;;;1.10;1.10;;;22.00;93.00;;;;;;4979491;28;20173;-94
2022/06/10 10:07:27;;;;;;;0.97;0.97;;;22.10;92.80;;;;;;4995767;28;20233;-92
2022/06/10 10:10:01;;;;;;;1.00;1.00;;;22.20;92.50;;;;;;4995745;28;20558;-93
2022/06/10 10:12:51;;;;;;;0.80;0.80;;;22.30;92.80;;;;;;4997101;28;20158;-90
2022/06/10 10:15:26;;;;;;;0.87;0.87;;;22.50;92.60;;;;;;4998326;28;20293;-93
2022/06/10 10:18:07;;;;;;;1.00;1.00;;;22.60;92.30;;;;;;5001445;28;20206;-94
2022/06/10 10:20:51;;;;;;;1.10;1.10;;;22.60;92.30;;;;;;5014226;28;20189;-91
2022/06/10 10:23:23;;;;;;;1.10;1.10;;;22.40;92.30;;;;;;5013525;28;20206;-93
2022/06/10 10:25:49;;;;;;;0.90;0.90;;;22.30;92.60;;;;;;5001183;28;20162;-90
2022/06/10 10:28:24;;;;;;;1.17;1.17;;;22.20;92.60;;;;;;4981865;28;20190;-93
2022/06/10 10:31:15;;;;;;;1.13;1.00;;;22.10;92.70;;;;;;4999718;28;20169;-92
2022/06/10 10:33:41;;;;;;;1.00;1.00;;;22.00;92.40;;;;;;4998700;28;20174;-92
2022/06/10 10:36:35;;;;;;;1.23;1.20;;;21.90;92.70;;;;;;4980949;28;20217;-92
2022/06/10 10:39:27;;;;;;;1.20;1.10;;;21.90;93.10;;;;;;4986664;28;20170;-88
2022/06/10 10:41:56;;;;;;;1.37;1.30;;;21.50;93.20;;;;;;5016399;28;20167;-90
2022/06/10 10:44:34;;;;;;;2.10;1.30;;;21.40;93.30;;;;;;5013444;28;20194;-95
2022/06/10 10:47:11;;;;;;;1.73;1.20;;;21.50;93.50;;;;;;4981119;28;20236;-91
2022/06/10 10:49:41;;;;;;;4.47;1.33;;;21.50;93.60;;;;;;4998087;28;20189;-92
2022/06/10 10:52:28;;;;;;;2.60;1.20;;;21.50;93.50;;;;;;5004339;28;20249;-93
2022/06/10 10:55:05;;;;;;;1.10;1.10;;;21.50;93.20;;;;;;4980677;28;20333;-86
2022/06/10 10:57:36;;;;;;;1.00;1.00;;;21.40;93.20;;;;;;4991943;28;20260;-91
2022/06/10 11:00:11;;;;;;;1.40;1.30;;;21.30;93.50;;;;;;4998809;28;20512;-89
2022/06/10 11:02:52;;;;;;;1.40;1.33;;;21.40;93.40;;;;;;4979250;28;20518;-91
2022/06/10 11:05:34;;;;;;;1.20;1.20;;;21.30;93.30;;;;;;4979933;28;20170;-88
2022/06/10 11:08:26;;;;;;;1.10;1.10;;;21.30;93.60;;;;;;4977800;28;20260;-90
2022/06/10 11:11:03;;;;;;;1.17;1.17;;;21.20;93.30;;;;;;4994396;28;20162;-87
2022/06/10 11:13:35;;;;;;;1.60;1.33;;;21.20;93.50;;;;;;4995233;28;20250;-95
2022/06/10 11:16:29;;;;;;;1.20;1.20;;;21.20;93.40;;;;;;5001195;28;20211;-94
2022/06/10 11:19:07;;;;;;;1.30;1.30;;;21.20;93.70;;;;;;4996209;28;20229;-88
2022/06/10 11:22:03;;;;;;;2.87;1.17;;;21.20;93.60;;;;;;4977943;28;20177;-87
2022/06/10 11:24:37;;;;;;;1.30;1.30;;;21.20;93.70;;;;;;4994169;28;20558;-92
2022/06/10 11:27:18;;;;;;;1.37;1.37;;;21.30;93.50;;;;;;4994779;28;20173;-94
2022/06/10 11:29:44;;;;;;;1.63;1.30;;;21.30;93.50;;;;;;4994928;28;20166;-93
2022/06/10 11:32:21;;;;;;;1.30;1.30;;;21.30;93.30;;;;;;4996896;28;20173;-95
2022/06/10 11:35:02;;;;;;;1.20;1.20;;;21.20;93.50;;;;;;4998650;28;20740;-92
2022/06/10 11:37:39;;;;;;;1.40;1.40;;;21.30;93.50;;;;;;4998949;28;20204;-93
2022/06/10 11:40:23;;;;;;;1.50;1.50;;;21.30;93.40;;;;;;5000611;28;20209;-90
2022/06/10 11:43:06;;;;;;;5.47;1.20;;;21.40;93.50;;;;;;5003528;28;20193;-92
2022/06/10 11:45:43;;;;;;;1.33;1.27;;;21.30;93.10;;;;;;5003909;28;20158;-87
2022/06/10 11:48:34;;;;;;;1.27;1.20;;;21.30;93.40;;;;;;5014494;28;20166;-86
2022/06/10 11:51:17;;;;;;;1.20;1.20;;;21.20;93.40;;;;;;5005405;28;20182;-87
2022/06/10 11:54:16;;;;;;;1.17;1.03;;;21.10;93.70;;;;;;5003737;28;20626;-87
2022/06/10 12:00:01;;;;;;;1.80;1.70;;;21.20;93.50;;;;;;4998539;28;20297;-90
2022/06/10 12:02:46;;;;;;;1.30;1.20;;;21.20;93.30;;;;;;5009831;28;20181;-91
2022/06/10 12:05:28;;;;;;;1.20;1.20;;;21.20;93.20;;;;;;5012876;28;20606;-90
2022/06/10 12:07:58;;;;;;;1.70;1.20;;;21.20;93.30;;;;;;4997877;28;20232;-91
2022/06/10 12:10:27;;;;;;;1.33;1.00;;;21.30;93.50;;;;;;4980616;28;20512;-90
2022/06/10 12:12:55;;;;;;;0.80;0.80;;;21.30;93.10;;;;;;4979786;28;20170;-90
2022/06/10 12:15:30;;;;;;;1.00;1.00;;;21.30;93.10;;;;;;4996649;28;20668;-92
2022/06/10 12:18:00;;;;;;;0.73;0.73;;;21.30;92.90;;;;;;4997252;28;20165;-92
2022/06/10 12:20:36;;;;;;;0.97;0.97;;;21.20;92.80;;;;;;4997501;28;20185;-89
2022/06/10 12:23:21;;;;;;;0.80;0.80;;;21.30;93.10;;;;;;5002085;28;20176;-92
2022/06/10 12:25:59;;;;;;;0.73;0.73;;;21.40;92.80;;;;;;5011429;28;20209;-88
2022/06/10 12:28:42;;;;;;;0.80;0.80;;;21.40;92.60;;;;;;4997926;28;20173;-89
2022/06/10 12:31:44;;;;;;;0.60;0.60;;;21.60;92.70;;;;;;4997338;28;20169;-91
2022/06/10 12:34:18;;;;;;;0.80;0.80;;;21.70;92.50;;;;;;4996612;28;20216;-89
2022/06/10 12:36:51;;;;;;;0.80;0.80;;;22.00;92.50;;;;;;4979946;28;20178;-93
2022/06/10 12:39:43;;;;;;;1.17;0.70;;;22.10;92.30;;;;;;5000687;28;20194;-88
2022/06/10 12:42:30;;;;;;;0.83;0.73;;;22.20;91.90;;;;;;4988139;28;20185;-85
2022/06/10 12:45:01;;;;;;;1.40;1.03;;;22.20;92.40;;;;;;5012374;28;20196;-83
2022/06/10 12:47:34;;;;;;;1.20;1.10;;;22.10;92.30;;;;;;4986072;28;20174;-88
2022/06/10 12:50:16;;;;;;;1.00;1.00;;;22.20;92.40;;;;;;4997688;28;20205;-90
2022/06/10 12:52:42;;;;;;;0.70;0.70;;;22.30;92.40;;;;;;4997072;28;20158;-87
2022/06/10 12:55:20;;;;;;;2.97;1.40;;;22.30;92.20;;;;;;4995319;28;20716;-86
2022/06/10 12:57:47;;;;;;;0.73;0.73;;;22.30;92.40;;;;;;4996091;28;20200;-86
2022/06/10 13:00:22;;;;;;;0.77;0.77;;;22.30;92.40;;;;;;4996092;28;20189;-90
2022/06/10 13:02:50;;;;;;;0.90;0.90;;;22.20;91.80;;;;;;4997216;28;20177;-90
2022/06/10 13:05:31;;;;;;;0.87;0.87;;;21.90;92.40;;;;;;4998855;28;20178;-88
2022/06/10 13:07:58;;;;;;;0.80;0.80;;;21.90;92.70;;;;;;4996988;28;20280;-89
2022/06/10 13:10:35;;;;;;;1.10;1.00;;;21.90;92.80;;;;;;4997815;28;20178;-87
2022/06/10 13:13:13;;;;;;;1.00;1.00;;;21.80;92.40;;;;;;4980002;28;20241;-89
2022/06/10 13:15:42;;;;;;;1.00;1.00;;;21.80;92.40;;;;;;4977765;28;20205;-89
2022/06/10 13:18:17;;;;;;;1.00;1.00;;;21.90;92.50;;;;;;4995829;28;20166;-86
2022/06/10 13:20:44;;;;;;;0.80;0.80;;;21.80;92.60;;;;;;4996068;28;20169;-85
2022/06/10 13:23:26;;;;;;;1.97;1.23;;;21.90;92.70;;;;;;4995500;28;20193;-87
2022/06/10 13:26:04;;;;;;;1.00;1.00;;;21.90;92.70;;;;;;4995240;28;20162;-88
2022/06/10 13:28:35;;;;;;;0.90;0.90;;;22.10;92.30;;;;;;4995620;28;20174;-89
2022/06/10 13:31:24;;;;;;;2.80;0.90;;;22.20;92.20;;;;;;4996525;28;20185;-92
2022/06/10 13:34:01;;;;;;;1.10;1.10;;;22.20;92.20;;;;;;4995275;28;20177;-88
2022/06/10 13:36:43;;;;;;;0.90;0.90;;;22.20;92.50;;;;;;5016653;28;20226;-86
2022/06/10 13:39:21;;;;;;;1.50;1.50;;;22.10;92.60;;;;;;5018240;28;20164;-95